Time;durP1;ratioP1;P1;durP2;ratioP2;P2;SDS_P1;SDS_P2;PMS_P1;PMS_P2;Temp;Humidity;BMP_temperature;BMP_pressure;BME280_temperature;BME280_humidity;BME280_pressure;Samples;Min_cycle;Max_cycle;Signal;HPM_P1;HPM_P2
2024/02/12 00:01:45;;;;;;;;;;;;;;;7.57;100.00;98028.70;137148;1276;22394;-74
2024/02/12 00:04:47;;;;;;;;;;;;;;;7.54;100.00;98029.95;137013;1273;22335;-74
2024/02/12 00:07:48;;;;;;;;;;;;;;;7.52;100.00;98037.29;137144;1276;22362;-74
2024/02/12 00:10:49;;;;;;;;;;;;;;;7.48;100.00;98035.16;137091;1277;22416;-74
2024/02/12 00:14:01;;;;;;;;;;;;;;;;;;;;;
2024/02/12 00:17:20;;;;;;;;;;;;;;;7.40;100.00;98038.54;137145;1276;23330;-74
2024/02/12 00:20:26;;;;;;;;;;;;;;;7.38;100.00;98039.05;137139;1276;22975;-74
2024/02/12 00:23:26;;;;;;;;;;;;;;;7.35;100.00;98041.08;137151;1276;22410;-74
2024/02/12 00:26:27;;;;;;;;;;;;;;;7.32;100.00;98040.67;137162;1276;22396;-74
2024/02/12 00:29:28;;;;;;;;;;;;;;;7.30;100.00;98045.33;137099;1276;22371;-75
2024/02/12 00:32:29;;;;;;;;;;;;;;;7.29;100.00;98046.55;137148;1276;22388;-75
2024/02/12 00:35:29;;;;;;;;;;;;;;;7.28;100.00;98049.05;137105;1274;23606;-74
2024/02/12 00:38:30;;;;;;;;;;;;;;;7.27;100.00;98056.55;137097;1271;22389;-75
2024/02/12 00:41:30;;;;;;;;;;;;;;;7.25;100.00;98055.65;137180;1276;22405;-76
2024/02/12 00:44:33;;;;;;;;;;;;;;;7.23;100.00;98060.83;137143;1276;22385;-74
2024/02/12 00:47:37;;;;;;;;;;;;;;;7.22;100.00;98069.99;137121;1276;22427;-75
2024/02/12 00:50:40;;;;;;;;;;;;;;;7.19;100.00;98063.08;137189;1276;22333;-74
2024/02/12 00:53:51;;;;;;;;;;;;;;;;;;;;;
2024/02/12 00:58:06;;;;;;;;;;;;;;;7.16;100.00;98070.13;137141;1276;22281;-75
2024/02/12 01:01:20;;;;;;;;;;;;;;;7.16;100.00;98072.60;136945;1276;22555;-74
2024/02/12 01:04:32;;;;;;;;;;;;;;;7.15;100.00;98076.78;137160;1276;22402;-74
2024/02/12 01:07:35;;;;;;;;;;;;;;;7.14;100.00;98079.23;137184;1272;22374;-74
2024/02/12 01:10:36;;;;;;;;;;;;;;;7.12;100.00;98078.91;137097;1276;22416;-75
2024/02/12 01:13:37;;;;;;;;;;;;;;;7.12;100.00;98081.08;137164;1276;22391;-74
2024/02/12 01:16:37;;;;;;;;;;;;;;;7.09;100.00;98076.98;137119;1276;22384;-74
2024/02/12 01:19:38;;;;;;;;;;;;;;;7.08;100.00;98082.21;137143;1276;22404;-74
2024/02/12 01:22:39;;;;;;;;;;;;;;;7.07;100.00;98082.90;137133;1276;22389;-73
2024/02/12 01:25:46;;;;;;;;;;;;;;;7.05;100.00;98087.43;137168;1276;22387;-73
2024/02/12 01:28:53;;;;;;;;;;;;;;;7.04;100.00;98086.48;137169;1276;23083;-74
2024/02/12 01:31:56;;;;;;;;;;;;;;;7.03;100.00;98086.59;137153;1276;23525;-74
2024/02/12 01:35:05;;;;;;;;;;;;;;;7.01;100.00;98088.90;137112;1276;22422;-74
2024/02/12 01:38:08;;;;;;;;;;;;;;;6.99;100.00;98089.34;137165;1276;22365;-74
2024/02/12 01:41:09;;;;;;;;;;;;;;;6.98;100.00;98088.98;137156;1276;23061;-73
2024/02/12 01:44:09;;;;;;;;;;;;;;;6.97;100.00;98095.08;137124;1276;22470;-74
2024/02/12 01:47:10;;;;;;;;;;;;;;;6.96;100.00;98091.52;137165;1276;22389;-74
2024/02/12 01:50:12;;;;;;;;;;;;;;;6.95;100.00;98097.07;137130;1276;22387;-74
2024/02/12 01:53:15;;;;;;;;;;;;;;;6.94;100.00;98094.27;137117;1276;22597;-73
2024/02/12 01:56:16;;;;;;;;;;;;;;;6.93;100.00;98102.45;137086;1276;22460;-74
2024/02/12 01:59:19;;;;;;;;;;;;;;;6.93;100.00;98101.23;137100;1276;22434;-74
2024/02/12 02:02:22;;;;;;;;;;;;;;;6.91;100.00;98103.68;136997;1276;22467;-74
2024/02/12 02:05:27;;;;;;;;;;;;;;;6.91;100.00;98108.88;137114;1276;22402;-75
2024/02/12 02:08:47;;;;;;;;;;;;;;;6.90;100.00;98106.80;137101;1276;22391;-73
2024/02/12 02:11:47;;;;;;;;;;;;;;;6.89;100.00;98107.98;137116;1276;22294;-74
2024/02/12 02:14:48;;;;;;;;;;;;;;;6.89;100.00;98112.92;137125;1276;22415;-74
2024/02/12 02:18:01;;;;;;;;;;;;;;;;;;;;;
2024/02/12 02:21:12;;;;;;;;;;;;;;;6.88;100.00;98120.45;137114;1276;22324;-74
2024/02/12 02:24:30;;;;;;;;;;;;;;;;;;;;;
2024/02/12 02:27:50;;;;;;;;;;;;;;;6.87;100.00;98122.71;137118;1270;22295;-74
2024/02/12 02:30:56;;;;;;;;;;;;;;;6.87;100.00;98123.05;137106;1276;22319;-73
2024/02/12 02:34:00;;;;;;;;;;;;;;;6.86;100.00;98124.89;137149;1276;23167;-74
2024/02/12 02:37:03;;;;;;;;;;;;;;;6.86;100.00;98130.20;137148;1273;22388;-74
2024/02/12 02:40:04;;;;;;;;;;;;;;;6.86;100.00;98129.96;137132;1276;23123;-74
2024/02/12 02:43:05;;;;;;;;;;;;;;;6.86;100.00;98133.70;137070;1276;23027;-75
2024/02/12 02:46:06;;;;;;;;;;;;;;;6.85;100.00;98139.05;137075;1276;23442;-74
2024/02/12 02:49:07;;;;;;;;;;;;;;;6.84;100.00;98140.86;137125;1276;22435;-74
2024/02/12 02:52:08;;;;;;;;;;;;;;;6.81;100.00;98141.93;137094;1276;23232;-75
2024/02/12 02:55:11;;;;;;;;;;;;;;;6.80;100.00;98141.52;137107;1276;23152;-74
2024/02/12 02:58:11;;;;;;;;;;;;;;;6.79;100.00;98149.02;137104;1276;23591;-76
2024/02/12 03:01:12;;;;;;;;;;;;;;;6.77;100.00;98153.10;137145;1276;23100;-76
2024/02/12 03:04:13;;;;;;;;;;;;;;;6.74;100.00;98159.04;137139;1276;22435;-76
2024/02/12 03:07:17;;;;;;;;;;;;;;;6.74;100.00;98160.29;137119;1273;22440;-75
2024/02/12 03:10:20;;;;;;;;;;;;;;;6.74;100.00;98165.92;137161;1276;22375;-74
2024/02/12 03:13:27;;;;;;;;;;;;;;;6.74;100.00;98167.71;137115;1276;22275;-74
2024/02/12 03:16:27;;;;;;;;;;;;;;;6.76;100.00;98168.91;137140;1276;23132;-73
2024/02/12 03:19:31;;;;;;;;;;;;;;;6.77;100.00;98169.84;137096;1276;22351;-76
2024/02/12 03:26:02;;;;;;;;;;;;;;;6.74;100.00;98174.04;137112;1276;22282;-74
2024/02/12 03:29:03;;;;;;;;;;;;;;;6.73;100.00;98175.30;137090;1276;23026;-75
2024/02/12 03:32:09;;;;;;;;;;;;;;;6.73;100.00;98180.45;137129;1276;22379;-74
2024/02/12 03:35:29;;;;;;;;;;;;;;;6.73;100.00;98184.63;137096;1276;23382;-74
2024/02/12 03:38:30;;;;;;;;;;;;;;;6.74;100.00;98182.07;137072;1270;22446;-74
2024/02/12 03:41:31;;;;;;;;;;;;;;;6.75;100.00;98190.75;137130;1276;22372;-74
2024/02/12 03:44:34;;;;;;;;;;;;;;;6.74;100.00;98191.96;137105;1276;23174;-75
2024/02/12 03:47:43;;;;;;;;;;;;;;;6.72;100.00;98193.57;137113;1276;23473;-74
2024/02/12 04:00:50;;;;;;;;;;;;;;;6.65;100.00;98196.19;137123;1276;23084;-74
2024/02/12 04:03:51;;;;;;;;;;;;;;;6.65;100.00;98201.45;137097;1270;22496;-75
2024/02/12 04:06:51;;;;;;;;;;;;;;;6.65;100.00;98200.48;137157;1265;22423;-73
2024/02/12 04:09:52;;;;;;;;;;;;;;;6.64;100.00;98205.27;137096;1276;22461;-74
2024/02/12 04:12:55;;;;;;;;;;;;;;;6.64;100.00;98207.73;137102;1276;22416;-74
2024/02/12 04:15:56;;;;;;;;;;;;;;;6.63;100.00;98211.16;137128;1276;22406;-74
2024/02/12 04:18:56;;;;;;;;;;;;;;;6.62;100.00;98213.26;137136;1276;22459;-75
2024/02/12 04:21:57;;;;;;;;;;;;;;;6.61;100.00;98213.48;137130;1276;22381;-74
2024/02/12 04:24:57;;;;;;;;;;;;;;;6.60;100.00;98215.05;137138;1273;22379;-74
2024/02/12 04:28:00;;;;;;;;;;;;;;;6.60;100.00;98220.09;137103;1276;22402;-74
2024/02/12 04:31:05;;;;;;;;;;;;;;;6.59;100.00;98220.98;137077;1276;22286;-74
2024/02/12 04:34:07;;;;;;;;;;;;;;;6.58;100.00;98221.36;137122;1276;22412;-74
2024/02/12 04:37:11;;;;;;;;;;;;;;;6.57;100.00;98223.75;137098;1276;22409;-73
2024/02/12 04:40:12;;;;;;;;;;;;;;;6.57;100.00;98223.98;137016;1276;22389;-74
2024/02/12 04:43:14;;;;;;;;;;;;;;;6.56;100.00;98225.31;137137;1276;22416;-74
2024/02/12 04:46:15;;;;;;;;;;;;;;;6.55;100.00;98228.59;137091;1276;22468;-74
2024/02/12 04:49:24;;;;;;;;;;;;;;;6.55;100.00;98234.88;137137;1272;22410;-76
2024/02/12 04:52:40;;;;;;;;;;;;;;;6.56;100.00;98234.41;137124;1276;22744;-74
2024/02/12 05:00:18;;;;;;;;;;;;;;;6.60;100.00;98242.55;137146;1276;23110;-74
2024/02/12 05:03:20;;;;;;;;;;;;;;;6.62;100.00;98245.58;137137;1276;22460;-74
2024/02/12 05:06:23;;;;;;;;;;;;;;;6.63;100.00;98249.11;137125;1276;22414;-74
2024/02/12 05:09:24;;;;;;;;;;;;;;;6.64;100.00;98249.59;137113;1276;22384;-73
2024/02/12 05:12:35;;;;;;;;;;;;;;;;;;;;;
2024/02/12 05:16:45;;;;;;;;;;;;;;;;;;;;;
2024/02/12 05:24:18;;;;;;;;;;;;;;;;;;;;;
2024/02/12 05:31:42;;;;;;;;;;;;;;;;;;;;;
2024/02/12 05:42:21;;;;;;;;;;;;;;;6.62;100.00;98278.09;137015;1276;22426;-76
2024/02/12 05:45:33;;;;;;;;;;;;;;;6.61;100.00;98282.25;137120;1276;22306;-76
2024/02/12 05:48:34;;;;;;;;;;;;;;;6.60;100.00;98286.22;137136;1276;22433;-76
2024/02/12 05:51:43;;;;;;;;;;;;;;;6.61;100.00;98289.09;137108;1276;22335;-76
2024/02/12 05:54:46;;;;;;;;;;;;;;;6.61;100.00;98291.27;137079;1276;22370;-78
2024/02/12 05:57:58;;;;;;;;;;;;;;;6.61;100.00;98295.14;136738;1276;22533;-78
2024/02/12 06:01:04;;;;;;;;;;;;;;;6.60;100.00;98296.84;136917;1276;22374;-75
2024/02/12 06:04:07;;;;;;;;;;;;;;;6.58;100.00;98302.09;137026;1276;22290;-76
2024/02/12 06:07:13;;;;;;;;;;;;;;;6.57;100.00;98301.10;137097;1276;22263;-76
2024/02/12 06:10:22;;;;;;;;;;;;;;;6.56;100.00;98305.40;137085;1276;22296;-76
2024/02/12 06:13:26;;;;;;;;;;;;;;;6.55;100.00;98307.64;137092;1276;22439;-78
2024/02/12 06:16:26;;;;;;;;;;;;;;;6.54;100.00;98310.35;137155;1276;22383;-75
2024/02/12 06:19:27;;;;;;;;;;;;;;;6.53;100.00;98312.00;137094;1273;23041;-74
2024/02/12 06:22:28;;;;;;;;;;;;;;;6.54;100.00;98316.39;137133;1276;22388;-76
2024/02/12 06:25:28;;;;;;;;;;;;;;;6.55;100.00;98318.50;137129;1276;22421;-75
2024/02/12 06:28:40;;;;;;;;;;;;;;;6.57;100.00;98321.38;137128;1276;22382;-75
2024/02/12 06:31:48;;;;;;;;;;;;;;;6.56;100.00;98323.47;137158;1276;23319;-76
2024/02/12 06:35:12;;;;;;;;;;;;;;;6.56;100.00;98327.39;137177;1276;22290;-75
2024/02/12 06:38:14;;;;;;;;;;;;;;;6.57;100.00;98333.94;137056;1276;22457;-75
2024/02/12 06:41:15;;;;;;;;;;;;;;;6.58;100.00;98337.88;137104;1273;23517;-75
2024/02/12 06:44:16;;;;;;;;;;;;;;;6.59;100.00;98342.97;137158;1276;22422;-74
2024/02/12 06:47:20;;;;;;;;;;;;;;;6.61;100.00;98344.28;137156;1276;22454;-75
2024/02/12 06:50:20;;;;;;;;;;;;;;;6.63;100.00;98349.73;137164;1276;22579;-76
2024/02/12 06:53:21;;;;;;;;;;;;;;;6.66;100.00;98348.48;137145;1276;22374;-76
2024/02/12 06:56:24;;;;;;;;;;;;;;;6.68;100.00;98354.71;137172;1276;22406;-74
2024/02/12 06:59:25;;;;;;;;;;;;;;;6.72;100.00;98358.53;137142;1276;22410;-75
2024/02/12 07:02:25;;;;;;;;;;;;;;;6.77;100.00;98363.62;137100;1276;22403;-74
2024/02/12 07:05:26;;;;;;;;;;;;;;;6.81;100.00;98367.75;137125;1276;22410;-75
2024/02/12 07:08:26;;;;;;;;;;;;;;;6.85;100.00;98370.41;137134;1276;22392;-75
2024/02/12 07:11:27;;;;;;;;;;;;;;;6.90;100.00;98377.19;137143;1276;22492;-75
2024/02/12 07:14:28;;;;;;;;;;;;;;;6.95;100.00;98379.95;137140;1276;22393;-75
2024/02/12 07:17:28;;;;;;;;;;;;;;;6.99;100.00;98382.60;137166;1276;22433;-75
2024/02/12 07:20:29;;;;;;;;;;;;;;;7.02;100.00;98389.75;137144;1276;22429;-75
2024/02/12 07:23:30;;;;;;;;;;;;;;;7.07;100.00;98391.63;137111;1276;22395;-76
2024/02/12 07:26:31;;;;;;;;;;;;;;;7.11;100.00;98393.98;137191;1276;22403;-76
2024/02/12 07:29:31;;;;;;;;;;;;;;;7.15;100.00;98390.49;137132;1276;22381;-75
2024/02/12 07:32:32;;;;;;;;;;;;;;;7.21;100.00;98392.99;137124;1276;22379;-75
2024/02/12 07:35:33;;;;;;;;;;;;;;;7.25;100.00;98397.52;137137;1276;22434;-75
2024/02/12 07:38:34;;;;;;;;;;;;;;;7.31;100.00;98397.58;137142;1276;22401;-75
2024/02/12 07:41:36;;;;;;;;;;;;;;;7.35;100.00;98400.55;137003;1274;22455;-75
2024/02/12 07:44:37;;;;;;;;;;;;;;;7.39;100.00;98399.86;137130;1276;22382;-74
2024/02/12 07:47:39;;;;;;;;;;;;;;;7.43;100.00;98401.52;137120;1276;22390;-75
2024/02/12 07:50:39;;;;;;;;;;;;;;;7.46;100.00;98406.91;137152;1276;23404;-75
2024/02/12 07:53:48;;;;;;;;;;;;;;;7.50;100.00;98409.56;137166;1276;22898;-75
2024/02/12 07:56:52;;;;;;;;;;;;;;;7.54;100.00;98413.12;137164;1276;22265;-76
2024/02/12 07:59:52;;;;;;;;;;;;;;;7.59;100.00;98414.27;137163;1276;23399;-75
2024/02/12 08:02:53;;;;;;;;;;;;;;;7.64;100.00;98418.20;137166;1276;22394;-80
2024/02/12 08:05:54;;;;;;;;;;;;;;;7.69;100.00;98424.55;137144;1276;22405;-76
2024/02/12 08:08:54;;;;;;;;;;;;;;;7.74;100.00;98427.27;137133;1276;22411;-75
2024/02/12 08:11:55;;;;;;;;;;;;;;;7.79;100.00;98430.77;137134;1275;23168;-75
2024/02/12 08:15:12;;;;;;;;;;;;;;;7.83;100.00;98432.23;136923;1277;23502;-76
2024/02/12 08:18:13;;;;;;;;;;;;;;;7.87;100.00;98436.77;137135;1276;22991;-76
2024/02/12 08:21:13;;;;;;;;;;;;;;;7.90;100.00;98439.39;137136;1276;23217;-75
2024/02/12 08:24:15;;;;;;;;;;;;;;;7.95;100.00;98446.71;137100;1276;23184;-75
2024/02/12 08:27:16;;;;;;;;;;;;;;;7.98;100.00;98448.19;137154;1265;22389;-75
2024/02/12 08:30:17;;;;;;;;;;;;;;;8.01;100.00;98454.69;137169;1277;23199;-75
2024/02/12 08:33:18;;;;;;;;;;;;;;;8.03;100.00;98457.59;137135;1277;22465;-75
2024/02/12 08:36:20;;;;;;;;;;;;;;;8.05;100.00;98459.87;137136;1277;22438;-75
2024/02/12 08:39:21;;;;;;;;;;;;;;;8.09;100.00;98464.99;137108;1274;23022;-76
2024/02/12 08:42:22;;;;;;;;;;;;;;;8.12;99.83;98468.34;137108;1276;23144;-76
2024/02/12 08:45:23;;;;;;;;;;;;;;;8.15;99.74;98471.83;137127;1277;23684;-76
2024/02/12 08:48:25;;;;;;;;;;;;;;;8.18;99.30;98475.67;137181;1277;23181;-76
2024/02/12 08:51:27;;;;;;;;;;;;;;;8.19;98.90;98480.27;137118;1276;23196;-76
2024/02/12 08:54:30;;;;;;;;;;;;;;;8.21;98.88;98484.23;137107;1277;23185;-77
2024/02/12 08:57:31;;;;;;;;;;;;;;;8.25;98.98;98483.95;137120;1276;22394;-76
2024/02/12 09:00:32;;;;;;;;;;;;;;;8.30;98.72;98488.97;137136;1277;23114;-76
2024/02/12 09:03:33;;;;;;;;;;;;;;;8.38;98.89;98492.09;137135;1277;23203;-76
2024/02/12 09:06:34;;;;;;;;;;;;;;;8.44;98.66;98491.22;137101;1276;23522;-76
2024/02/12 09:09:38;;;;;;;;;;;;;;;8.49;97.92;98492.60;137161;1276;23380;-76
2024/02/12 09:12:39;;;;;;;;;;;;;;;8.53;97.79;98495.59;137140;1269;22438;-76
2024/02/12 09:15:40;;;;;;;;;;;;;;;8.61;97.71;98497.35;137138;1276;22302;-76
2024/02/12 09:18:41;;;;;;;;;;;;;;;8.67;97.16;98496.50;137127;1276;22863;-77
2024/02/12 09:21:42;;;;;;;;;;;;;;;8.74;97.33;98503.17;137137;1276;23291;-76
2024/02/12 09:24:42;;;;;;;;;;;;;;;8.85;96.81;98507.67;137127;1276;22408;-76
2024/02/12 09:27:46;;;;;;;;;;;;;;;8.90;96.53;98517.75;137086;1276;22490;-75
2024/02/12 09:30:50;;;;;;;;;;;;;;;8.96;96.48;98523.36;137105;1272;22572;-75
2024/02/12 09:34:00;;;;;;;;;;;;;;;9.08;96.43;98526.10;134479;1276;3484880;-75
2024/02/12 09:37:04;;;;;;;;;;;;;;;9.15;95.56;98533.23;137178;1276;22284;-75
2024/02/12 09:44:16;;;;;;;;;;;;;;;9.28;95.20;98532.20;137069;1276;22451;-75
2024/02/12 09:48:00;;;;;;;;;;;;;;;9.31;94.00;98533.30;137156;1276;22434;-75
2024/02/12 09:51:05;;;;;;;;;;;;;;;9.31;93.75;98538.30;137033;1276;22505;-76
2024/02/12 09:54:37;;;;;;;;;;;;;;;;;;;;;
2024/02/12 09:58:00;;;;;;;;;;;;;;;9.28;93.01;98549.21;137128;1276;22344;-75
2024/02/12 10:01:05;;;;;;;;;;;;;;;9.29;93.43;98550.85;137114;1276;22405;-76
2024/02/12 10:04:19;;;;;;;;;;;;;;;9.33;93.59;98554.73;137138;1276;22284;-75
2024/02/12 10:07:35;;;;;;;;;;;;;;;9.44;93.47;98556.56;137117;1276;22310;-76
2024/02/12 10:10:41;;;;;;;;;;;;;;;9.44;92.73;98555.88;137160;1276;22402;-76
2024/02/12 10:13:50;;;;;;;;;;;;;;;9.43;92.10;98559.16;137130;1276;22464;-77
2024/02/12 10:16:54;;;;;;;;;;;;;;;9.44;92.40;98559.72;137098;1276;22453;-77
2024/02/12 10:19:58;;;;;;;;;;;;;;;9.48;92.73;98559.73;137103;1276;22436;-76
2024/02/12 10:23:05;;;;;;;;;;;;;;;9.55;92.30;98559.55;137136;1276;22382;-75
2024/02/12 10:26:15;;;;;;;;;;;;;;;9.53;92.02;98559.21;137130;1276;22239;-76
2024/02/12 10:29:22;;;;;;;;;;;;;;;9.52;91.92;98562.23;137139;1276;22320;-76
2024/02/12 10:32:23;;;;;;;;;;;;;;;9.47;91.38;98560.38;137130;1276;22405;-77
2024/02/12 10:35:24;;;;;;;;;;;;;;;9.47;91.17;98558.02;137151;1276;22362;-75
2024/02/12 10:38:29;;;;;;;;;;;;;;;9.48;90.56;98558.73;137163;1276;22489;-76
2024/02/12 10:41:32;;;;;;;;;;;;;;;9.47;90.40;98558.95;137160;1274;22427;-76
2024/02/12 10:44:49;;;;;;;;;;;;;;;;;;;;;
2024/02/12 10:48:28;;;;;;;;;;;;;;;;;;;;;
2024/02/12 10:52:29;;;;;;;;;;;;;;;;;;;;;
2024/02/12 10:55:33;;;;;;;;;;;;;;;9.34;89.05;98566.46;136942;1277;22423;-75
2024/02/12 10:58:38;;;;;;;;;;;;;;;9.39;89.62;98570.77;137156;1276;22391;-75
2024/02/12 11:01:39;;;;;;;;;;;;;;;9.43;89.36;98570.75;137139;1276;22406;-76
2024/02/12 11:04:44;;;;;;;;;;;;;;;9.48;89.30;98568.73;136942;1276;23322;-76
2024/02/12 11:07:49;;;;;;;;;;;;;;;9.53;88.43;98569.57;137159;1276;23080;-75
2024/02/12 11:10:50;;;;;;;;;;;;;;;9.53;87.69;98570.02;137142;1276;22404;-75
2024/02/12 11:13:57;;;;;;;;;;;;;;;9.54;88.09;98574.50;137143;1276;22380;-76
2024/02/12 11:17:00;;;;;;;;;;;;;;;9.57;87.79;98575.16;137141;1276;22384;-75
2024/02/12 11:20:05;;;;;;;;;;;;;;;9.63;88.10;98579.09;137118;1276;22411;-75
2024/02/12 11:23:06;;;;;;;;;;;;;;;9.73;88.09;98582.11;137176;1276;22387;-75
2024/02/12 11:26:07;;;;;;;;;;;;;;;9.81;87.24;98583.68;137121;1266;22460;-76
2024/02/12 11:29:08;;;;;;;;;;;;;;;9.86;87.34;98589.20;137192;1276;22394;-76
2024/02/12 11:32:10;;;;;;;;;;;;;;;9.93;86.90;98585.84;137170;1276;22384;-76
2024/02/12 11:35:15;;;;;;;;;;;;;;;9.96;85.87;98584.91;137170;1273;22384;-75
2024/02/12 11:38:17;;;;;;;;;;;;;;;10.01;85.76;98591.52;137145;1276;23414;-75
2024/02/12 11:41:17;;;;;;;;;;;;;;;10.04;85.60;98593.77;137120;1276;22388;-75
2024/02/12 11:44:18;;;;;;;;;;;;;;;10.07;85.72;98591.98;137146;1276;22443;-76
2024/02/12 11:47:31;;;;;;;;;;;;;;;10.11;84.94;98592.73;137148;1276;23045;-75
2024/02/12 11:51:15;;;;;;;;;;;;;;;;;;;;;
2024/02/12 11:54:26;;;;;;;;;;;;;;;10.11;84.08;98590.90;137108;1276;23073;-76
2024/02/12 11:57:27;;;;;;;;;;;;;;;10.10;83.86;98595.17;137159;1276;22552;-77
2024/02/12 12:00:31;;;;;;;;;;;;;;;10.09;84.00;98600.02;137151;1276;22419;-81
2024/02/12 12:03:32;;;;;;;;;;;;;;;10.10;84.25;98598.35;137138;1276;22398;-75
2024/02/12 12:06:34;;;;;;;;;;;;;;;10.14;83.46;98599.79;137118;1276;22425;-76
2024/02/12 12:09:34;;;;;;;;;;;;;;;10.16;83.41;98597.88;137144;1276;22430;-77
2024/02/12 12:12:36;;;;;;;;;;;;;;;10.24;83.46;98605.03;137160;1276;22387;-77
2024/02/12 12:15:36;;;;;;;;;;;;;;;10.32;83.18;98601.32;137154;1276;23100;-76
2024/02/12 12:18:38;;;;;;;;;;;;;;;10.38;83.37;98603.85;137169;1276;22540;-75
2024/02/12 12:21:39;;;;;;;;;;;;;;;10.43;83.34;98607.61;137155;1276;22349;-76
2024/02/12 12:24:39;;;;;;;;;;;;;;;10.39;82.52;98609.20;137183;1276;23254;-76
2024/02/12 12:27:41;;;;;;;;;;;;;;;10.29;81.62;98608.29;137113;1276;22394;-77
2024/02/12 12:30:41;;;;;;;;;;;;;;;10.14;81.58;98611.23;137083;1276;23155;-77
2024/02/12 12:33:43;;;;;;;;;;;;;;;10.02;82.21;98616.11;137146;1276;22368;-75
2024/02/12 12:36:44;;;;;;;;;;;;;;;9.97;82.33;98619.13;137164;1276;22439;-76
2024/02/12 12:39:55;;;;;;;;;;;;;;;9.93;82.14;98623.02;137129;1276;22382;-75
2024/02/12 12:43:38;;;;;;;;;;;;;;;9.91;82.33;98626.09;137138;1275;22268;-75
2024/02/12 12:47:18;;;;;;;;;;;;;;;9.89;82.25;98631.40;137014;1276;22443;-75
2024/02/12 12:50:17;;;;;;;;;;;;;;;9.84;81.46;98635.61;136994;1276;22434;-76
2024/02/12 12:53:40;;;;;;;;;;;;;;;;;;;;;
2024/02/12 12:57:22;;;;;;;;;;;;;;;9.71;81.33;98641.35;137158;1276;22437;-75
2024/02/12 13:00:30;;;;;;;;;;;;;;;9.64;80.81;98636.14;137170;1276;22441;-76
2024/02/12 13:03:31;;;;;;;;;;;;;;;9.57;80.79;98641.94;137162;1276;23566;-76
2024/02/12 13:06:32;;;;;;;;;;;;;;;9.54;81.20;98643.51;137167;1277;22412;-77
2024/02/12 13:09:35;;;;;;;;;;;;;;;9.52;80.95;98645.61;137192;1277;22396;-76
2024/02/12 13:12:38;;;;;;;;;;;;;;;9.50;81.55;98650.73;137168;1271;22388;-76
2024/02/12 13:15:41;;;;;;;;;;;;;;;9.52;81.59;98654.61;137138;1277;23187;-75
2024/02/12 13:18:42;;;;;;;;;;;;;;;9.57;82.01;98657.46;137170;1277;22398;-78
2024/02/12 13:21:43;;;;;;;;;;;;;;;9.64;81.76;98656.02;137174;1277;22376;-76
2024/02/12 13:25:12;;;;;;;;;;;;;;;9.75;82.25;98657.47;137179;1277;22398;-77
2024/02/12 13:28:19;;;;;;;;;;;;;;;9.90;82.03;98657.74;137183;1277;23003;-75
2024/02/12 13:31:24;;;;;;;;;;;;;;;10.08;82.28;98656.13;137173;1277;23099;-76
2024/02/12 13:39:14;;;;;;;;;;;;;;;10.34;80.51;98656.19;137110;1277;22434;-77
2024/02/12 13:42:11;;;;;;;;;;;;;;;10.29;79.77;98659.60;136880;1277;22442;-76
2024/02/12 13:46:12;;;;;;;;;;;;;;;10.23;79.64;98664.33;137170;1277;22454;-77
2024/02/12 13:49:29;;;;;;;;;;;;;;;10.14;79.33;98672.01;137121;1276;23656;-77
2024/02/12 13:52:35;;;;;;;;;;;;;;;10.05;79.32;98680.13;137185;1276;22365;-76
2024/02/12 13:55:53;;;;;;;;;;;;;;;;;;;;;
2024/02/12 13:58:59;;;;;;;;;;;;;;;9.96;79.66;98688.20;137121;1276;22293;-81
2024/02/12 14:02:03;;;;;;;;;;;;;;;9.91;79.96;98692.70;137178;1276;22969;-76
2024/02/12 14:05:03;;;;;;;;;;;;;;;9.89;80.48;98700.48;137125;1276;22377;-78
2024/02/12 14:08:04;;;;;;;;;;;;;;;9.86;79.89;98702.46;137187;1276;22402;-76
2024/02/12 14:11:06;;;;;;;;;;;;;;;9.81;80.24;98709.98;137142;1276;23059;-76
2024/02/12 14:14:27;;;;;;;;;;;;;;;9.79;80.45;98715.34;137177;1276;22382;-75
2024/02/12 14:17:32;;;;;;;;;;;;;;;9.74;80.11;98715.69;137145;1276;23264;-77
2024/02/12 14:20:34;;;;;;;;;;;;;;;9.67;80.36;98722.54;137144;1276;23046;-76
2024/02/12 14:23:35;;;;;;;;;;;;;;;9.63;80.35;98725.98;137180;1273;22472;-75
2024/02/12 14:26:36;;;;;;;;;;;;;;;9.60;80.05;98725.79;137141;1276;22390;-76
2024/02/12 14:29:37;;;;;;;;;;;;;;;9.55;79.99;98728.34;137163;1276;22525;-77
2024/02/12 14:33:02;;;;;;;;;;;;;;;9.51;80.03;98732.71;137174;1276;22420;-76
2024/02/12 14:36:32;;;;;;;;;;;;;;;;;;;;;
2024/02/12 14:39:39;;;;;;;;;;;;;;;9.47;80.29;98748.65;137164;1276;22499;-77
2024/02/12 14:42:43;;;;;;;;;;;;;;;9.47;80.39;98748.04;137172;1266;22378;-75
2024/02/12 14:45:44;;;;;;;;;;;;;;;9.48;80.55;98753.94;137114;1276;23210;-76
2024/02/12 14:48:45;;;;;;;;;;;;;;;9.49;80.55;98757.89;137181;1273;22402;-76
2024/02/12 14:51:46;;;;;;;;;;;;;;;9.50;80.92;98760.71;137184;1276;23068;-75
2024/02/12 14:54:47;;;;;;;;;;;;;;;9.50;80.93;98762.31;137152;1276;23476;-76
2024/02/12 14:57:50;;;;;;;;;;;;;;;9.48;80.84;98765.34;137110;1276;22427;-76
2024/02/12 15:00:59;;;;;;;;;;;;;;;9.49;80.98;98767.58;137045;1276;22369;-77
2024/02/12 15:04:04;;;;;;;;;;;;;;;9.52;81.12;98770.35;137150;1276;22514;-76
2024/02/12 15:07:05;;;;;;;;;;;;;;;9.50;81.12;98770.95;137129;1276;22420;-79
2024/02/12 15:10:07;;;;;;;;;;;;;;;9.49;81.00;98776.42;137163;1276;22393;-75
2024/02/12 15:13:08;;;;;;;;;;;;;;;9.48;81.21;98779.23;137139;1276;22399;-77
2024/02/12 15:16:12;;;;;;;;;;;;;;;9.43;81.50;98782.22;137115;1270;22459;-76
2024/02/12 15:19:12;;;;;;;;;;;;;;;9.38;81.30;98784.95;137217;1276;22378;-75
2024/02/12 15:22:13;;;;;;;;;;;;;;;9.29;81.17;98789.39;137168;1276;22374;-76
2024/02/12 15:25:17;;;;;;;;;;;;;;;9.23;81.29;98804.35;137144;1272;22435;-75
2024/02/12 15:28:18;;;;;;;;;;;;;;;9.15;81.61;98808.78;137098;1276;23095;-79
2024/02/12 15:31:23;;;;;;;;;;;;;;;9.03;81.67;98812.84;137114;1271;22398;-76
2024/02/12 15:34:24;;;;;;;;;;;;;;;8.90;81.94;98818.17;137215;1276;22272;-75
2024/02/12 15:37:25;;;;;;;;;;;;;;;8.82;82.30;98818.29;137125;1276;22380;-76
2024/02/12 15:40:28;;;;;;;;;;;;;;;8.73;82.35;98823.27;137188;1276;22366;-76
2024/02/12 15:43:30;;;;;;;;;;;;;;;8.64;82.59;98827.90;137136;1276;22427;-76
2024/02/12 15:46:35;;;;;;;;;;;;;;;8.58;82.72;98834.82;137144;1276;22392;-75
2024/02/12 15:49:36;;;;;;;;;;;;;;;8.48;82.63;98836.40;137144;1276;22411;-76
2024/02/12 15:52:49;;;;;;;;;;;;;;;8.39;82.75;98843.14;137141;1276;22430;-75
2024/02/12 15:55:57;;;;;;;;;;;;;;;8.31;82.62;98845.91;137158;1276;23030;-75
2024/02/12 15:58:57;;;;;;;;;;;;;;;8.26;82.96;98848.85;136985;1276;22521;-75
2024/02/12 16:02:07;;;;;;;;;;;;;;;8.22;83.06;98852.88;137137;1276;23018;-75
2024/02/12 16:05:28;;;;;;;;;;;;;;;8.16;83.14;98857.83;137125;1276;22377;-76
2024/02/12 16:08:29;;;;;;;;;;;;;;;8.10;83.26;98868.15;137147;1276;22400;-76
2024/02/12 16:11:29;;;;;;;;;;;;;;;8.06;83.47;98873.45;137109;1276;22454;-76
2024/02/12 16:14:30;;;;;;;;;;;;;;;8.02;83.66;98881.97;137091;1269;22405;-76
2024/02/12 16:17:30;;;;;;;;;;;;;;;7.98;83.77;98885.56;137117;1276;22449;-77
2024/02/12 16:20:31;;;;;;;;;;;;;;;7.96;83.75;98889.69;137116;1276;22400;-77
2024/02/12 16:23:32;;;;;;;;;;;;;;;7.95;83.99;98898.33;137161;1276;22366;-75
2024/02/12 16:26:32;;;;;;;;;;;;;;;7.95;84.05;98903.73;137107;1276;22485;-76
2024/02/12 16:29:33;;;;;;;;;;;;;;;7.96;84.17;98904.02;137134;1272;22378;-75
2024/02/12 16:32:33;;;;;;;;;;;;;;;7.95;84.25;98908.91;137158;1276;22403;-74
2024/02/12 16:35:35;;;;;;;;;;;;;;;7.92;84.28;98908.91;137201;1276;22434;-72
2024/02/12 16:38:36;;;;;;;;;;;;;;;7.87;84.23;98911.20;137118;1276;22400;-76
2024/02/12 16:41:36;;;;;;;;;;;;;;;7.79;84.15;98918.98;137159;1276;22404;-74
2024/02/12 16:44:38;;;;;;;;;;;;;;;7.73;84.33;98924.64;137146;1273;22453;-76
2024/02/12 16:47:38;;;;;;;;;;;;;;;7.67;84.44;98928.98;137121;1276;23064;-76
2024/02/12 16:58:35;;;;;;;;;;;;;;;7.56;84.76;98946.39;137118;1276;22308;-76
2024/02/12 17:01:41;;;;;;;;;;;;;;;7.55;84.79;98952.70;137146;1276;22301;-78
2024/02/12 17:04:41;;;;;;;;;;;;;;;7.55;85.05;98955.61;137155;1276;23499;-77
2024/02/12 17:07:45;;;;;;;;;;;;;;;7.55;85.08;98961.71;137141;1276;22408;-75
2024/02/12 17:11:09;;;;;;;;;;;;;;;7.54;85.21;98962.15;137140;1276;22305;-75
2024/02/12 17:14:23;;;;;;;;;;;;;;;;;;;;;
2024/02/12 17:17:47;;;;;;;;;;;;;;;;;;;;;